sensor_id;sensor_type;location;lat;lon;timestamp;pressure;altitude;pressure_sealevel;temperature;humidity
64243;BME280;50573;51.512;5.386;2023-04-07T00:09:25;101169.91;;;9.03;100.00
64243;BME280;50573;51.512;5.386;2023-04-07T00:19:29;101167.97;;;9.00;100.00
64243;BME280;50573;51.512;5.386;2023-04-07T00:29:34;101174.97;;;9.01;100.00
64243;BME280;50573;51.512;5.386;2023-04-07T00:39:38;101186.22;;;9.03;100.00
64243;BME280;50573;51.512;5.386;2023-04-07T00:49:41;101169.59;;;8.97;100.00
64243;BME280;50573;51.512;5.386;2023-04-07T00:59:46;101173.19;;;8.91;100.00
64243;BME280;50573;51.512;5.386;2023-04-07T01:09:54;101174.38;;;8.90;100.00
64243;BME280;50573;51.512;5.386;2023-04-07T01:20:04;101183.28;;;8.90;100.00
64243;BME280;50573;51.512;5.386;2023-04-07T01:30:12;101179.41;;;8.91;100.00
64243;BME280;50573;51.512;5.386;2023-04-07T01:40:18;101186.81;;;8.87;100.00
64243;BME280;50573;51.512;5.386;2023-04-07T01:50:25;101192.41;;;8.77;100.00
64243;BME280;50573;51.512;5.386;2023-04-07T02:00:28;101200.56;;;8.77;100.00
64243;BME280;50573;51.512;5.386;2023-04-07T02:10:37;101210.78;;;8.66;100.00
64243;BME280;50573;51.512;5.386;2023-04-07T02:20:42;101207.28;;;8.69;100.00
64243;BME280;50573;51.512;5.386;2023-04-07T02:30:48;101212.00;;;8.61;100.00
64243;BME280;50573;51.512;5.386;2023-04-07T02:40:51;101201.16;;;8.61;100.00
64243;BME280;50573;51.512;5.386;2023-04-07T02:50:57;101208.19;;;8.59;100.00
64243;BME280;50573;51.512;5.386;2023-04-07T03:01:01;101198.88;;;8.56;100.00
64243;BME280;50573;51.512;5.386;2023-04-07T03:11:07;101206.63;;;8.58;100.00
64243;BME280;50573;51.512;5.386;2023-04-07T03:21:11;101213.97;;;8.61;100.00
64243;BME280;50573;51.512;5.386;2023-04-07T03:31:16;101214.06;;;8.54;100.00
64243;BME280;50573;51.512;5.386;2023-04-07T03:41:22;101203.19;;;8.54;100.00
64243;BME280;50573;51.512;5.386;2023-04-07T03:51:26;101210.97;;;8.52;100.00
64243;BME280;50573;51.512;5.386;2023-04-07T04:01:32;101211.84;;;8.45;100.00
64243;BME280;50573;51.512;5.386;2023-04-07T04:11:44;101223.09;;;8.43;100.00
64243;BME280;50573;51.512;5.386;2023-04-07T04:21:49;101216.59;;;8.37;100.00
64243;BME280;50573;51.512;5.386;2023-04-07T04:31:55;101221.44;;;8.23;100.00
64243;BME280;50573;51.512;5.386;2023-04-07T04:41:59;101228.81;;;8.15;100.00
64243;BME280;50573;51.512;5.386;2023-04-07T04:52:09;101240.06;;;8.17;100.00
64243;BME280;50573;51.512;5.386;2023-04-07T05:02:16;101251.00;;;8.10;100.00
64243;BME280;50573;51.512;5.386;2023-04-07T05:12:21;101264.19;;;8.08;100.00
64243;BME280;50573;51.512;5.386;2023-04-07T05:22:31;101263.81;;;8.06;100.00
64243;BME280;50573;51.512;5.386;2023-04-07T05:32:37;101281.56;;;8.14;100.00
64243;BME280;50573;51.512;5.386;2023-04-07T05:42:49;101281.56;;;8.14;100.00
64243;BME280;50573;51.512;5.386;2023-04-07T05:52:53;101282.38;;;8.11;100.00
64243;BME280;50573;51.512;5.386;2023-04-07T06:03:00;101281.91;;;8.20;100.00
64243;BME280;50573;51.512;5.386;2023-04-07T06:13:13;101291.66;;;8.14;100.00
64243;BME280;50573;51.512;5.386;2023-04-07T06:23:16;101304.28;;;8.34;100.00
64243;BME280;50573;51.512;5.386;2023-04-07T06:33:20;101311.56;;;8.41;100.00
64243;BME280;50573;51.512;5.386;2023-04-07T06:43:26;101327.94;;;8.68;100.00
64243;BME280;50573;51.512;5.386;2023-04-07T06:53:36;101325.72;;;8.89;100.00
64243;BME280;50573;51.512;5.386;2023-04-07T07:03:39;101335.47;;;9.17;100.00
64243;BME280;50573;51.512;5.386;2023-04-07T07:13:44;101346.03;;;9.38;100.00
64243;BME280;50573;51.512;5.386;2023-04-07T07:23:47;101335.41;;;9.47;100.00
64243;BME280;50573;51.512;5.386;2023-04-07T07:33:52;101362.50;;;9.80;100.00
64243;BME280;50573;51.512;5.386;2023-04-07T07:43:55;101374.28;;;10.20;100.00
64243;BME280;50573;51.512;5.386;2023-04-07T07:54:00;101382.81;;;10.22;100.00
64243;BME280;50573;51.512;5.386;2023-04-07T08:04:03;101379.84;;;10.13;100.00
64243;BME280;50573;51.512;5.386;2023-04-07T08:14:08;101400.97;;;10.52;100.00
64243;BME280;50573;51.512;5.386;2023-04-07T08:24:11;101416.91;;;10.73;100.00
64243;BME280;50573;51.512;5.386;2023-04-07T08:34:15;101416.09;;;10.76;100.00
64243;BME280;50573;51.512;5.386;2023-04-07T08:44:21;101428.16;;;10.32;100.00
64243;BME280;50573;51.512;5.386;2023-04-07T08:54:27;101442.72;;;10.22;98.29
64243;BME280;50573;51.512;5.386;2023-04-07T09:04:30;101447.81;;;10.43;98.07
64243;BME280;50573;51.512;5.386;2023-04-07T09:14:35;101453.97;;;10.90;95.71
64243;BME280;50573;51.512;5.386;2023-04-07T09:24:39;101465.25;;;11.11;94.60
64243;BME280;50573;51.512;5.386;2023-04-07T09:34:43;101466.16;;;11.25;93.39
64243;BME280;50573;51.512;5.386;2023-04-07T09:44:47;101468.16;;;11.20;92.22
64243;BME280;50573;51.512;5.386;2023-04-07T09:54:52;101455.22;;;11.64;91.90
64243;BME280;50573;51.512;5.386;2023-04-07T10:04:56;101471.53;;;11.08;92.58
64243;BME280;50573;51.512;5.386;2023-04-07T10:15:02;101467.81;;;10.99;93.69
64243;BME280;50573;51.512;5.386;2023-04-07T10:25:07;101486.34;;;11.07;92.33
64243;BME280;50573;51.512;5.386;2023-04-07T10:35:13;101496.84;;;11.29;90.58
64243;BME280;50573;51.512;5.386;2023-04-07T10:45:53;101503.31;;;11.54;87.90
64243;BME280;50573;51.512;5.386;2023-04-07T10:56:01;101507.00;;;11.48;88.74
64243;BME280;50573;51.512;5.386;2023-04-07T11:06:05;101498.88;;;11.64;86.09
64243;BME280;50573;51.512;5.386;2023-04-07T11:16:11;101515.94;;;12.03;83.61
64243;BME280;50573;51.512;5.386;2023-04-07T11:26:15;101519.19;;;12.30;81.92
64243;BME280;50573;51.512;5.386;2023-04-07T11:36:28;101518.44;;;12.14;80.45
64243;BME280;50573;51.512;5.386;2023-04-07T11:46:33;101530.03;;;12.02;82.49
64243;BME280;50573;51.512;5.386;2023-04-07T11:56:46;101530.69;;;11.51;86.94
64243;BME280;50573;51.512;5.386;2023-04-07T12:06:49;101539.81;;;11.64;87.06
64243;BME280;50573;51.512;5.386;2023-04-07T12:16:54;101549.44;;;11.88;85.94
64243;BME280;50573;51.512;5.386;2023-04-07T12:26:58;101547.28;;;12.15;82.15
64243;BME280;50573;51.512;5.386;2023-04-07T12:37:03;101564.88;;;11.78;82.78
64243;BME280;50573;51.512;5.386;2023-04-07T12:47:06;101574.44;;;11.86;84.77
64243;BME280;50573;51.512;5.386;2023-04-07T12:57:11;101574.94;;;12.17;81.69
64243;BME280;50573;51.512;5.386;2023-04-07T13:07:14;101596.34;;;11.83;83.65
64243;BME280;50573;51.512;5.386;2023-04-07T13:17:18;101587.63;;;11.49;84.82
64243;BME280;50573;51.512;5.386;2023-04-07T13:27:22;101600.56;;;11.45;84.48
64243;BME280;50573;51.512;5.386;2023-04-07T13:37:26;101602.72;;;11.34;84.59
64243;BME280;50573;51.512;5.386;2023-04-07T13:47:29;101601.09;;;11.16;85.38
64243;BME280;50573;51.512;5.386;2023-04-07T13:57:36;101603.69;;;11.23;86.26
64243;BME280;50573;51.512;5.386;2023-04-07T14:07:39;101592.53;;;11.38;86.24
64243;BME280;50573;51.512;5.386;2023-04-07T14:17:43;101599.56;;;11.35;84.40
64243;BME280;50573;51.512;5.386;2023-04-07T14:27:47;101595.50;;;11.23;85.73
64243;BME280;50573;51.512;5.386;2023-04-07T14:37:51;101604.72;;;11.10;88.54
64243;BME280;50573;51.512;5.386;2023-04-07T14:47:56;101604.53;;;10.97;89.10
64243;BME280;50573;51.512;5.386;2023-04-07T14:58:00;101614.66;;;10.74;89.73
64243;BME280;50573;51.512;5.386;2023-04-07T15:08:03;101622.03;;;10.73;89.80
64243;BME280;50573;51.512;5.386;2023-04-07T15:18:08;101633.69;;;10.77;89.84
64243;BME280;50573;51.512;5.386;2023-04-07T15:28:11;101626.31;;;10.97;89.29
64243;BME280;50573;51.512;5.386;2023-04-07T15:38:15;101622.03;;;11.23;88.78
64243;BME280;50573;51.512;5.386;2023-04-07T15:48:19;101633.16;;;11.32;87.46
64243;BME280;50573;51.512;5.386;2023-04-07T15:58:23;101638.59;;;11.32;87.07
64243;BME280;50573;51.512;5.386;2023-04-07T16:08:26;101645.19;;;11.11;86.58
64243;BME280;50573;51.512;5.386;2023-04-07T16:18:30;101641.16;;;10.96;86.27
64243;BME280;50573;51.512;5.386;2023-04-07T16:28:33;101655.25;;;10.91;86.40
64243;BME280;50573;51.512;5.386;2023-04-07T16:38:38;101662.59;;;10.71;86.63
64243;BME280;50573;51.512;5.386;2023-04-07T16:48:41;101672.06;;;10.63;87.49
64243;BME280;50573;51.512;5.386;2023-04-07T16:58:46;101685.06;;;10.49;89.08
64243;BME280;50573;51.512;5.386;2023-04-07T17:08:49;101692.84;;;10.50;89.09
64243;BME280;50573;51.512;5.386;2023-04-07T17:18:54;101704.50;;;10.51;89.61
64243;BME280;50573;51.512;5.386;2023-04-07T17:28:57;101715.84;;;10.46;90.33
64243;BME280;50573;51.512;5.386;2023-04-07T17:39:02;101730.03;;;10.34;90.19
64243;BME280;50573;51.512;5.386;2023-04-07T17:49:06;101747.31;;;10.17;92.01
64243;BME280;50573;51.512;5.386;2023-04-07T17:59:10;101746.66;;;10.06;92.11
64243;BME280;50573;51.512;5.386;2023-04-07T18:09:13;101761.50;;;9.98;92.99
64243;BME280;50573;51.512;5.386;2023-04-07T18:19:17;101767.06;;;9.87;93.39
64243;BME280;50573;51.512;5.386;2023-04-07T18:29:21;101777.69;;;9.71;94.83
64243;BME280;50573;51.512;5.386;2023-04-07T18:39:25;101792.81;;;9.79;94.50
64243;BME280;50573;51.512;5.386;2023-04-07T18:49:28;101805.66;;;9.75;95.00
64243;BME280;50573;51.512;5.386;2023-04-07T18:59:33;101809.59;;;9.70;95.64
64243;BME280;50573;51.512;5.386;2023-04-07T19:09:36;101824.00;;;9.64;96.18
64243;BME280;50573;51.512;5.386;2023-04-07T19:19:41;101832.19;;;9.64;97.40
64243;BME280;50573;51.512;5.386;2023-04-07T19:29:44;101832.19;;;9.64;96.76
64243;BME280;50573;51.512;5.386;2023-04-07T19:39:48;101842.69;;;9.62;97.49
64243;BME280;50573;51.512;5.386;2023-04-07T19:50:04;101848.53;;;9.57;97.69
64243;BME280;50573;51.512;5.386;2023-04-07T20:00:09;101848.22;;;9.51;97.98
64243;BME280;50573;51.512;5.386;2023-04-07T20:10:21;101865.69;;;9.47;98.47
64243;BME280;50573;51.512;5.386;2023-04-07T20:20:25;101869.19;;;9.47;99.05
64243;BME280;50573;51.512;5.386;2023-04-07T20:30:28;101876.63;;;9.43;99.67
64243;BME280;50573;51.512;5.386;2023-04-07T20:40:34;101882.88;;;9.37;100.00
64243;BME280;50573;51.512;5.386;2023-04-07T20:50:38;101889.09;;;9.34;100.00
64243;BME280;50573;51.512;5.386;2023-04-07T21:00:42;101895.31;;;9.31;100.00
64243;BME280;50573;51.512;5.386;2023-04-07T21:10:45;101907.38;;;9.30;100.00
64243;BME280;50573;51.512;5.386;2023-04-07T21:20:49;101904.28;;;9.24;100.00
64243;BME280;50573;51.512;5.386;2023-04-07T21:30:52;101902.34;;;9.25;100.00
64243;BME280;50573;51.512;5.386;2023-04-07T21:40:58;101888.44;;;9.12;100.00
64243;BME280;50573;51.512;5.386;2023-04-07T21:51:02;101898.16;;;9.06;100.00
64243;BME280;50573;51.512;5.386;2023-04-07T22:01:06;101895.47;;;9.03;100.00
64243;BME280;50573;51.512;5.386;2023-04-07T22:11:09;101897.41;;;8.99;100.00
64243;BME280;50573;51.512;5.386;2023-04-07T22:21:14;101907.53;;;8.95;100.00
64243;BME280;50573;51.512;5.386;2023-04-07T22:31:17;101918.41;;;8.91;100.00
64243;BME280;50573;51.512;5.386;2023-04-07T22:41:21;101929.69;;;8.90;100.00
64243;BME280;50573;51.512;5.386;2023-04-07T22:51:24;101916.50;;;8.88;100.00
64243;BME280;50573;51.512;5.386;2023-04-07T23:01:29;101916.50;;;8.85;100.00
64243;BME280;50573;51.512;5.386;2023-04-07T23:11:32;101924.66;;;8.71;100.00
64243;BME280;50573;51.512;5.386;2023-04-07T23:21:36;101933.25;;;8.62;100.00
64243;BME280;50573;51.512;5.386;2023-04-07T23:31:40;101939.06;;;8.54;100.00
64243;BME280;50573;51.512;5.386;2023-04-07T23:41:44;101942.53;;;8.58;100.00
64243;BME280;50573;51.512;5.386;2023-04-07T23:51:47;101949.91;;;8.68;100.00
